Time;durP1;ratioP1;P1;durP2;ratioP2;P2;SDS_P1;SDS_P2;PMS_P1;PMS_P2;Temp;Humidity;BMP_temperature;BMP_pressure;BME280_temperature;BME280_humidity;BME280_pressure;Samples;Min_cycle;Max_cycle;Signal;HPM_P1;HPM_P2
2023/05/13 00:00:16;;;;;;;13.45;5.30;;;12.80;99.90;;;;;;5116565;28;20087;-73
2023/05/13 00:02:42;;;;;;;8.15;5.07;;;12.80;99.90;;;;;;5120101;28;20023;-74
2023/05/13 00:05:08;;;;;;;12.55;5.50;;;12.80;99.90;;;;;;5121239;28;20023;-73
2023/05/13 00:07:35;;;;;;;9.68;5.07;;;12.70;99.90;;;;;;5103652;28;20130;-73
2023/05/13 00:10:01;;;;;;;13.57;5.15;;;12.70;99.90;;;;;;5120398;28;20120;-73
2023/05/13 00:12:26;;;;;;;10.50;4.80;;;12.60;99.90;;;;;;5120719;28;20067;-74
2023/05/13 00:14:52;;;;;;;9.68;4.97;;;12.60;99.90;;;;;;5120607;28;20036;-74
2023/05/13 00:17:17;;;;;;;10.40;5.15;;;12.60;99.90;;;;;;5120383;28;20015;-74
2023/05/13 00:19:43;;;;;;;6.70;4.72;;;12.60;99.90;;;;;;5120402;28;20024;-74
2023/05/13 00:22:08;;;;;;;10.50;6.18;;;12.60;99.90;;;;;;5124575;28;20030;-79
2023/05/13 00:24:34;;;;;;;11.60;6.20;;;12.50;99.90;;;;;;5121197;28;20024;-75
2023/05/13 00:27:00;;;;;;;10.50;6.32;;;12.50;99.90;;;;;;5120266;28;20023;-73
2023/05/13 00:29:25;;;;;;;9.20;5.57;;;12.50;99.90;;;;;;5119850;28;20024;-73
2023/05/13 00:31:51;;;;;;;10.85;6.18;;;12.50;99.90;;;;;;5120735;28;20024;-79
2023/05/13 00:34:18;;;;;;;12.63;5.55;;;12.60;99.90;;;;;;5121965;28;20034;-73
2023/05/13 00:36:44;;;;;;;7.38;4.80;;;12.60;99.90;;;;;;5124341;28;20031;-75
2023/05/13 00:39:10;;;;;;;7.63;4.95;;;12.50;99.90;;;;;;5124149;28;20056;-83
2023/05/13 00:41:36;;;;;;;9.52;5.35;;;12.50;99.90;;;;;;5128119;28;20031;-84
2023/05/13 00:44:01;;;;;;;8.65;4.65;;;12.60;99.90;;;;;;5126581;28;20027;-83
2023/05/13 00:46:31;;;;;;;9.15;4.40;;;12.70;99.90;;;;;;5125842;28;20031;-73
2023/05/13 00:48:57;;;;;;;8.02;4.75;;;12.70;99.90;;;;;;5120429;28;20122;-73
2023/05/13 00:51:23;;;;;;;12.35;5.28;;;12.70;99.90;;;;;;5123527;28;20153;-79
2023/05/13 00:53:49;;;;;;;11.52;4.88;;;12.70;99.90;;;;;;5124824;28;20074;-74
2023/05/13 00:56:19;;;;;;;10.57;5.35;;;12.60;99.90;;;;;;5121634;28;20046;-74
2023/05/13 00:58:45;;;;;;;12.07;5.00;;;12.90;99.90;;;;;;5119517;28;20028;-79
2023/05/13 01:01:19;;;;;;;8.25;5.07;;;13.00;99.90;;;;;;5124438;28;20034;-79
2023/05/13 01:03:57;;;;;;;6.47;4.80;;;12.80;99.90;;;;;;5120223;28;20028;-73
2023/05/13 01:06:39;;;;;;;6.20;4.60;;;12.70;99.90;;;;;;5121579;28;20046;-79
2023/05/13 01:09:16;;;;;;;5.65;4.35;;;12.80;99.90;;;;;;5120153;28;20031;-74
2023/05/13 01:11:43;;;;;;;9.95;4.80;;;12.80;99.90;;;;;;5121674;28;20028;-74
2023/05/13 01:14:13;;;;;;;6.93;4.68;;;12.90;99.90;;;;;;5118140;28;20064;-74
2023/05/13 01:17:00;;;;;;;8.70;4.80;;;12.90;99.90;;;;;;5123008;28;20016;-73
2023/05/13 01:19:34;;;;;;;8.57;5.00;;;12.90;99.90;;;;;;5122152;28;20051;-79
2023/05/13 01:22:00;;;;;;;8.05;5.30;;;12.90;99.90;;;;;;5124068;28;20020;-79
2023/05/13 01:24:25;;;;;;;8.00;4.43;;;12.80;99.90;;;;;;5123483;28;20049;-79
2023/05/13 01:26:51;;;;;;;10.63;4.82;;;12.80;99.90;;;;;;5122193;28;20020;-82
2023/05/13 01:29:16;;;;;;;9.38;4.47;;;12.70;99.90;;;;;;5123762;28;20099;-80
2023/05/13 01:31:45;;;;;;;8.80;5.03;;;12.80;99.90;;;;;;5120347;28;20020;-74
2023/05/13 01:34:12;;;;;;;8.52;4.45;;;12.80;99.90;;;;;;5123237;28;20019;-80
2023/05/13 01:36:38;;;;;;;6.35;4.50;;;12.70;99.90;;;;;;5123445;28;20077;-79
2023/05/13 01:39:05;;;;;;;9.38;5.22;;;12.50;99.90;;;;;;5124702;28;20030;-83
2023/05/13 01:41:30;;;;;;;11.82;5.38;;;12.30;99.90;;;;;;5123794;28;20028;-83
2023/05/13 01:43:56;;;;;;;9.40;5.53;;;12.30;99.90;;;;;;5125637;28;20050;-83
2023/05/13 01:46:22;;;;;;;11.93;6.07;;;12.40;99.90;;;;;;5120169;28;20024;-74
2023/05/13 01:48:47;;;;;;;8.82;5.30;;;12.40;99.90;;;;;;5118703;28;20024;-80
2023/05/13 01:51:13;;;;;;;8.70;4.82;;;12.30;99.90;;;;;;5123484;28;20139;-80
2023/05/13 01:53:39;;;;;;;11.02;5.20;;;12.30;99.90;;;;;;5124568;28;20023;-83
2023/05/13 01:56:08;;;;;;;7.25;4.93;;;12.30;99.90;;;;;;5124771;28;20045;-83
2023/05/13 01:58:33;;;;;;;10.25;4.47;;;12.30;99.90;;;;;;5119258;28;20030;-73
2023/05/13 02:00:59;;;;;;;7.95;4.80;;;12.40;99.90;;;;;;5118233;28;20023;-73
2023/05/13 02:03:25;;;;;;;10.65;5.60;;;12.30;99.90;;;;;;5121246;28;20019;-79
2023/05/13 02:05:50;;;;;;;16.23;5.32;;;12.30;99.90;;;;;;5123092;28;20102;-79
2023/05/13 02:08:16;;;;;;;13.27;4.65;;;12.30;99.90;;;;;;5123592;28;20028;-79
2023/05/13 02:10:41;;;;;;;6.97;4.90;;;12.40;99.90;;;;;;5122895;28;20020;-80
2023/05/13 02:13:07;;;;;;;10.98;4.70;;;12.40;99.90;;;;;;5122990;28;20023;-75
2023/05/13 02:15:33;;;;;;;8.48;4.90;;;12.30;99.90;;;;;;5118233;28;20026;-73
2023/05/13 02:17:58;;;;;;;12.68;5.38;;;12.40;99.90;;;;;;5119071;28;20024;-74
2023/05/13 02:20:25;;;;;;;8.27;5.15;;;12.40;99.90;;;;;;5120718;28;20034;-80
2023/05/13 02:22:51;;;;;;;9.82;5.45;;;12.40;99.90;;;;;;5122801;28;20095;-79
2023/05/13 02:25:16;;;;;;;12.45;6.63;;;12.20;99.90;;;;;;5119868;28;20074;-73
2023/05/13 02:27:42;;;;;;;9.60;5.57;;;12.20;99.90;;;;;;5118006;28;20023;-73
2023/05/13 02:30:08;;;;;;;8.10;6.38;;;12.10;99.90;;;;;;5122997;28;20046;-83
2023/05/13 02:32:33;;;;;;;6.25;4.93;;;12.00;99.90;;;;;;5122959;28;20020;-82
2023/05/13 02:34:59;;;;;;;10.63;5.32;;;12.10;99.90;;;;;;5122727;28;20015;-82
2023/05/13 02:37:25;;;;;;;9.38;5.15;;;12.10;99.90;;;;;;5123598;28;20019;-82
2023/05/13 02:39:51;;;;;;;10.70;5.47;;;12.00;99.90;;;;;;5122610;28;20020;-82
2023/05/13 02:42:16;;;;;;;8.57;5.20;;;11.90;99.90;;;;;;5123333;28;20038;-82
2023/05/13 02:44:42;;;;;;;8.02;5.35;;;11.80;99.90;;;;;;5123468;28;20027;-82
2023/05/13 02:47:07;;;;;;;9.55;6.10;;;11.70;99.90;;;;;;5122917;28;20031;-79
2023/05/13 02:49:33;;;;;;;10.23;5.25;;;11.80;99.90;;;;;;5125942;28;20024;-79
2023/05/13 02:51:58;;;;;;;7.80;5.10;;;11.80;99.90;;;;;;5122744;28;20071;-79
2023/05/13 02:54:24;;;;;;;7.60;5.25;;;11.90;99.90;;;;;;5122177;28;20031;-79
2023/05/13 02:56:49;;;;;;;7.70;5.15;;;11.90;99.90;;;;;;5123320;28;20016;-79
2023/05/13 02:59:15;;;;;;;10.95;5.30;;;11.90;99.90;;;;;;5119037;28;20105;-73
2023/05/13 03:01:41;;;;;;;5.88;4.82;;;11.90;99.90;;;;;;5118103;28;20028;-73
2023/05/13 03:04:06;;;;;;;12.15;5.15;;;12.00;99.90;;;;;;5117960;28;20029;-73
2023/05/13 03:06:32;;;;;;;11.38;5.75;;;12.00;99.90;;;;;;5117358;28;20019;-73
2023/05/13 03:08:57;;;;;;;8.68;5.00;;;12.00;99.90;;;;;;5117203;28;20038;-73
2023/05/13 03:11:23;;;;;;;8.70;4.80;;;12.00;99.90;;;;;;5117435;28;20058;-73
2023/05/13 03:13:48;;;;;;;8.93;5.00;;;12.00;99.90;;;;;;5116903;28;20036;-73
2023/05/13 03:16:14;;;;;;;7.93;5.15;;;12.10;99.90;;;;;;5117470;28;20020;-73
2023/05/13 03:18:39;;;;;;;6.93;5.22;;;12.00;99.90;;;;;;5117158;28;20030;-73
2023/05/13 03:21:05;;;;;;;7.97;4.78;;;12.00;99.90;;;;;;5117174;28;20023;-73
2023/05/13 03:23:32;;;;;;;13.50;4.82;;;12.00;99.90;;;;;;5117562;28;20030;-73
2023/05/13 03:25:57;;;;;;;6.90;4.95;;;12.00;99.90;;;;;;5117274;28;20031;-73
2023/05/13 03:28:23;;;;;;;11.52;5.20;;;12.00;99.90;;;;;;5117078;28;20024;-73
2023/05/13 03:30:49;;;;;;;8.90;5.05;;;11.90;99.90;;;;;;5116628;28;20024;-73
2023/05/13 03:33:15;;;;;;;8.15;5.30;;;11.80;99.90;;;;;;5117546;28;20016;-73
2023/05/13 03:35:40;;;;;;;10.63;5.32;;;11.80;99.90;;;;;;5115905;28;20023;-73
2023/05/13 03:38:06;;;;;;;11.25;5.57;;;11.80;99.90;;;;;;5116961;28;20027;-73
2023/05/13 03:40:32;;;;;;;7.55;5.03;;;11.80;99.90;;;;;;5117907;28;20039;-79
2023/05/13 03:42:57;;;;;;;6.05;4.90;;;11.70;99.90;;;;;;5122590;28;20031;-79
2023/05/13 03:45:23;;;;;;;11.45;5.35;;;11.70;99.90;;;;;;5121431;28;20023;-79
2023/05/13 03:47:49;;;;;;;7.07;4.90;;;11.80;99.90;;;;;;5122747;28;20032;-79
2023/05/13 03:50:14;;;;;;;7.30;5.20;;;11.80;99.90;;;;;;5120671;28;20020;-79
2023/05/13 03:52:40;;;;;;;9.80;4.40;;;11.70;99.90;;;;;;5123835;28;20041;-79
2023/05/13 03:55:06;;;;;;;7.45;5.25;;;11.70;99.90;;;;;;5121647;28;20019;-79
2023/05/13 03:57:31;;;;;;;9.32;5.00;;;11.60;99.90;;;;;;5121975;28;20020;-79
2023/05/13 03:59:57;;;;;;;8.15;4.82;;;11.60;99.90;;;;;;5121744;28;20056;-79
2023/05/13 04:02:22;;;;;;;9.45;4.82;;;11.60;99.90;;;;;;5122004;28;20083;-81
2023/05/13 04:04:48;;;;;;;9.40;5.93;;;11.60;99.90;;;;;;5122589;28;20027;-82
2023/05/13 04:07:14;;;;;;;9.88;5.22;;;11.60;99.90;;;;;;5122529;28;20020;-82
2023/05/13 04:09:39;;;;;;;11.77;5.38;;;11.60;99.90;;;;;;5122218;28;20028;-79
2023/05/13 04:12:05;;;;;;;7.72;5.63;;;11.60;99.90;;;;;;5121193;28;20027;-79
2023/05/13 04:14:31;;;;;;;8.30;5.75;;;11.70;99.90;;;;;;5119891;28;20042;-73
2023/05/13 04:16:56;;;;;;;9.35;5.15;;;11.70;99.90;;;;;;5116545;28;20023;-73
2023/05/13 04:19:22;;;;;;;8.75;6.10;;;11.80;99.90;;;;;;5117011;28;20027;-73
2023/05/13 04:21:47;;;;;;;11.85;5.00;;;11.80;99.90;;;;;;5116260;28;20031;-73
2023/05/13 04:24:13;;;;;;;7.50;4.93;;;11.80;99.90;;;;;;5116221;28;20027;-73
2023/05/13 04:26:38;;;;;;;9.10;5.53;;;11.90;99.90;;;;;;5116302;28;20024;-74
2023/05/13 04:29:04;;;;;;;7.95;5.50;;;11.90;99.90;;;;;;5116358;28;20020;-73
2023/05/13 04:31:30;;;;;;;10.07;6.10;;;11.90;99.90;;;;;;5118998;28;20031;-82
2023/05/13 04:33:56;;;;;;;9.18;5.60;;;11.90;99.90;;;;;;5122048;28;20019;-82
2023/05/13 04:36:21;;;;;;;20.00;6.13;;;12.00;99.90;;;;;;5123764;28;20057;-82
2023/05/13 04:38:47;;;;;;;11.23;6.00;;;11.90;99.90;;;;;;5121111;28;20084;-82
2023/05/13 04:41:12;;;;;;;8.10;5.40;;;12.00;99.90;;;;;;5117014;28;20039;-73
2023/05/13 04:43:38;;;;;;;7.75;5.50;;;12.00;99.90;;;;;;5116049;28;20023;-73
2023/05/13 04:46:03;;;;;;;14.20;5.50;;;12.00;99.90;;;;;;5116744;28;20027;-80
2023/05/13 04:48:29;;;;;;;18.23;6.70;;;11.90;99.90;;;;;;5119088;28;20031;-74
2023/05/13 04:50:55;;;;;;;16.50;8.02;;;12.00;99.90;;;;;;5120572;28;20027;-82
2023/05/13 04:53:20;;;;;;;13.75;6.45;;;12.00;99.90;;;;;;5121126;28;20023;-82
2023/05/13 04:55:48;;;;;;;11.55;6.38;;;12.10;99.90;;;;;;5120879;28;20197;-82
2023/05/13 04:58:14;;;;;;;10.18;6.38;;;12.10;99.90;;;;;;5120828;28;20077;-80
2023/05/13 05:00:39;;;;;;;10.50;6.25;;;12.10;99.90;;;;;;5121902;28;20020;-80
2023/05/13 05:03:05;;;;;;;9.30;5.65;;;12.10;99.90;;;;;;5120866;28;20024;-80
2023/05/13 05:05:30;;;;;;;14.57;5.70;;;12.00;99.90;;;;;;5120396;28;20115;-80
2023/05/13 05:07:56;;;;;;;10.38;5.82;;;12.10;99.90;;;;;;5120650;28;20020;-73
2023/05/13 05:10:21;;;;;;;10.25;5.85;;;12.10;99.90;;;;;;5119290;28;20028;-73
2023/05/13 05:12:47;;;;;;;10.77;6.45;;;12.20;99.90;;;;;;5119984;28;20020;-73
2023/05/13 05:15:16;;;;;;;8.77;6.07;;;12.20;99.90;;;;;;5119660;28;20012;-73
2023/05/13 05:17:42;;;;;;;10.88;6.45;;;12.20;99.90;;;;;;5120245;28;20041;-73
2023/05/13 05:20:09;;;;;;;12.93;6.47;;;12.20;99.90;;;;;;5119120;28;20027;-74
2023/05/13 05:22:36;;;;;;;9.63;5.60;;;12.30;99.90;;;;;;5119473;28;20027;-74
2023/05/13 05:25:02;;;;;;;14.00;6.78;;;12.30;99.90;;;;;;5119352;28;20110;-74
2023/05/13 05:27:28;;;;;;;10.60;6.90;;;12.30;99.90;;;;;;5119534;28;20095;-73
2023/05/13 05:29:56;;;;;;;10.80;6.10;;;12.30;99.90;;;;;;5118745;28;20088;-73
2023/05/13 05:32:22;;;;;;;9.15;6.68;;;12.40;99.90;;;;;;5119702;28;20024;-73
2023/05/13 05:34:47;;;;;;;9.77;6.28;;;12.50;99.90;;;;;;5118843;28;20027;-73
2023/05/13 05:37:13;;;;;;;9.15;6.65;;;12.50;99.90;;;;;;5118831;28;20019;-73
2023/05/13 05:39:40;;;;;;;11.32;5.97;;;12.70;99.90;;;;;;5118972;28;20024;-73
2023/05/13 05:42:06;;;;;;;10.20;6.72;;;12.70;99.90;;;;;;5119016;28;20110;-75
2023/05/13 05:44:32;;;;;;;12.50;6.85;;;12.70;99.90;;;;;;5119598;28;20085;-82
2023/05/13 05:46:57;;;;;;;11.27;6.30;;;12.80;99.90;;;;;;5120985;28;20027;-82
2023/05/13 05:49:23;;;;;;;15.10;6.90;;;12.70;99.90;;;;;;5119156;28;20037;-74
2023/05/13 05:51:48;;;;;;;10.15;6.10;;;12.70;99.90;;;;;;5118850;28;20043;-82
2023/05/13 05:54:14;;;;;;;11.10;6.18;;;12.80;99.90;;;;;;5120646;28;20054;-83
2023/05/13 05:56:39;;;;;;;14.57;6.28;;;12.90;99.90;;;;;;5119892;28;20064;-73
2023/05/13 05:59:05;;;;;;;11.85;5.85;;;12.80;99.90;;;;;;5118914;28;20077;-80
2023/05/13 06:01:32;;;;;;;11.23;5.97;;;12.90;99.90;;;;;;5118578;28;20032;-73
2023/05/13 06:03:58;;;;;;;10.02;5.75;;;12.90;99.90;;;;;;5119301;28;20023;-82
2023/05/13 06:06:24;;;;;;;8.73;6.18;;;12.90;99.90;;;;;;5120378;28;20077;-80
2023/05/13 06:08:49;;;;;;;12.27;6.50;;;12.90;99.90;;;;;;5120030;28;20027;-81
2023/05/13 06:11:16;;;;;;;10.95;6.70;;;12.80;99.90;;;;;;5119460;28;20046;-74
2023/05/13 06:13:42;;;;;;;10.82;6.63;;;12.70;99.90;;;;;;5119943;28;20020;-80
2023/05/13 06:16:08;;;;;;;9.98;6.03;;;12.80;99.90;;;;;;5120389;28;20028;-80
2023/05/13 06:18:34;;;;;;;9.70;5.97;;;12.90;99.90;;;;;;5120294;28;20023;-80
2023/05/13 06:20:59;;;;;;;10.52;6.05;;;13.00;99.90;;;;;;5119700;28;20126;-80
2023/05/13 06:23:25;;;;;;;11.35;6.28;;;13.00;99.90;;;;;;5119625;28;20024;-80
2023/05/13 06:25:50;;;;;;;9.35;5.72;;;13.10;99.90;;;;;;5120395;28;20020;-80
2023/05/13 06:28:16;;;;;;;7.68;5.25;;;13.20;99.90;;;;;;5119770;28;20081;-80
2023/05/13 06:30:43;;;;;;;8.65;5.35;;;13.20;99.90;;;;;;5119205;28;20020;-81
2023/05/13 06:33:09;;;;;;;9.60;6.22;;;13.30;99.90;;;;;;5119473;28;20016;-80
2023/05/13 06:35:35;;;;;;;6.40;5.55;;;13.30;99.90;;;;;;5119872;28;20069;-81
2023/05/13 06:38:01;;;;;;;10.88;5.95;;;13.40;99.90;;;;;;5118980;28;20016;-81
2023/05/13 06:40:27;;;;;;;12.15;5.50;;;13.40;99.90;;;;;;5119056;28;20028;-80
2023/05/13 06:42:52;;;;;;;8.10;5.70;;;13.40;99.90;;;;;;5120516;28;20045;-81
2023/05/13 06:45:21;;;;;;;7.85;5.80;;;13.50;99.90;;;;;;5119158;28;20027;-80
2023/05/13 06:47:50;;;;;;;6.90;5.38;;;13.50;99.90;;;;;;5118962;28;20047;-81
2023/05/13 06:50:16;;;;;;;11.30;5.50;;;13.50;99.90;;;;;;5118773;28;20024;-81
2023/05/13 06:52:41;;;;;;;11.23;6.03;;;13.50;99.90;;;;;;5118547;28;20022;-73
2023/05/13 06:55:07;;;;;;;7.40;5.15;;;13.60;99.90;;;;;;5117613;28;20027;-73
2023/05/13 06:57:33;;;;;;;12.52;5.65;;;13.70;99.90;;;;;;5117489;28;20024;-73
2023/05/13 06:59:59;;;;;;;9.65;5.13;;;13.80;99.90;;;;;;5117522;28;20027;-73
2023/05/13 07:02:25;;;;;;;12.48;5.65;;;13.90;99.90;;;;;;5117340;28;20073;-74
2023/05/13 07:04:51;;;;;;;8.18;5.35;;;14.00;99.90;;;;;;5117414;28;20027;-74
2023/05/13 07:07:17;;;;;;;10.65;6.15;;;14.10;99.90;;;;;;5117437;28;20028;-73
2023/05/13 07:09:42;;;;;;;10.73;5.75;;;14.20;99.90;;;;;;5116662;28;20028;-74
2023/05/13 07:12:10;;;;;;;8.73;5.57;;;14.20;99.90;;;;;;5117207;28;20096;-74
2023/05/13 07:14:36;;;;;;;7.18;5.45;;;14.30;99.90;;;;;;5116955;28;20031;-73
2023/05/13 07:17:02;;;;;;;13.80;6.03;;;14.40;99.90;;;;;;5117492;28;20024;-74
2023/05/13 07:19:28;;;;;;;8.02;5.50;;;14.40;99.90;;;;;;5117683;28;20049;-73
2023/05/13 07:21:54;;;;;;;7.47;5.10;;;14.60;99.90;;;;;;5117199;28;20122;-74
2023/05/13 07:24:19;;;;;;;7.15;4.75;;;14.60;99.90;;;;;;5116979;28;20023;-74
2023/05/13 07:26:45;;;;;;;8.18;5.38;;;14.70;99.90;;;;;;5117040;28;20028;-74
2023/05/13 07:29:10;;;;;;;9.23;5.28;;;14.80;99.90;;;;;;5117639;28;20038;-73
2023/05/13 07:31:36;;;;;;;11.05;5.03;;;14.80;99.90;;;;;;5116458;28;20027;-75
2023/05/13 07:34:02;;;;;;;9.40;5.47;;;14.90;99.90;;;;;;5117129;28;20020;-74
2023/05/13 07:36:28;;;;;;;12.90;5.93;;;14.90;99.90;;;;;;5117581;28;20024;-74
2023/05/13 07:38:53;;;;;;;8.27;5.22;;;14.90;99.90;;;;;;5116974;28;20035;-75
2023/05/13 07:41:20;;;;;;;7.18;5.13;;;15.00;99.90;;;;;;5116750;28;20115;-75
2023/05/13 07:43:45;;;;;;;12.18;5.90;;;15.00;99.90;;;;;;5116957;28;20035;-75
2023/05/13 07:46:11;;;;;;;7.10;5.72;;;15.10;99.90;;;;;;5116856;28;20028;-75
2023/05/13 07:48:36;;;;;;;8.70;5.57;;;15.20;99.90;;;;;;5116727;28;20059;-74
2023/05/13 07:51:02;;;;;;;12.27;4.93;;;15.30;99.90;;;;;;5116937;28;20024;-74
2023/05/13 07:53:28;;;;;;;7.97;5.05;;;15.40;99.90;;;;;;5116555;28;20111;-74
2023/05/13 07:55:53;;;;;;;5.97;4.55;;;15.60;99.90;;;;;;5116816;28;20020;-75
2023/05/13 07:58:19;;;;;;;8.07;5.32;;;15.60;99.90;;;;;;5116489;28;20030;-75
2023/05/13 08:00:45;;;;;;;7.85;5.35;;;15.70;99.90;;;;;;5116774;28;20024;-76
2023/05/13 08:03:11;;;;;;;10.23;5.15;;;15.80;99.90;;;;;;5116596;28;20034;-74
2023/05/13 08:05:36;;;;;;;9.48;5.65;;;15.80;99.90;;;;;;5116667;28;20047;-75
2023/05/13 08:08:03;;;;;;;5.50;4.70;;;15.90;99.90;;;;;;5117127;28;20019;-77
2023/05/13 08:10:29;;;;;;;12.10;5.18;;;15.90;99.90;;;;;;5116784;28;20023;-75
2023/05/13 08:12:56;;;;;;;7.13;4.43;;;16.00;99.90;;;;;;5116736;28;20055;-76
2023/05/13 08:15:22;;;;;;;8.15;5.05;;;16.10;99.90;;;;;;5116593;28;20019;-76
2023/05/13 08:17:48;;;;;;;7.72;4.90;;;16.10;99.90;;;;;;5116961;28;20042;-75
2023/05/13 08:20:14;;;;;;;5.97;4.40;;;16.20;99.90;;;;;;5116523;28;20117;-76
2023/05/13 08:22:40;;;;;;;7.35;4.03;;;16.30;99.90;;;;;;5118941;28;20015;-75
2023/05/13 08:25:06;;;;;;;6.95;4.03;;;16.40;99.90;;;;;;5120434;28;20024;-74
2023/05/13 08:27:31;;;;;;;7.70;3.58;;;16.40;99.90;;;;;;5120547;28;20072;-75
2023/05/13 08:29:57;;;;;;;5.47;4.00;;;16.70;99.90;;;;;;5121123;28;20184;-75
2023/05/13 08:32:22;;;;;;;9.82;4.38;;;16.70;99.90;;;;;;5120282;28;20057;-76
2023/05/13 08:34:49;;;;;;;5.70;4.03;;;16.70;99.90;;;;;;5120035;28;20148;-74
2023/05/13 08:37:14;;;;;;;4.40;3.22;;;16.70;99.90;;;;;;5120222;28;20042;-74
2023/05/13 08:39:40;;;;;;;4.82;3.40;;;16.80;99.90;;;;;;5120496;28;20031;-74
2023/05/13 08:42:07;;;;;;;5.72;3.88;;;17.00;99.90;;;;;;5120695;28;20023;-75
2023/05/13 08:44:38;;;;;;;7.40;3.83;;;17.00;99.90;;;;;;5120076;28;20114;-74
2023/05/13 08:47:18;;;;;;;3.40;2.87;;;17.20;99.90;;;;;;5120641;28;20038;-74
2023/05/13 08:49:45;;;;;;;4.40;3.58;;;17.70;99.90;;;;;;5120349;28;20281;-74
2023/05/13 08:52:10;;;;;;;6.50;3.47;;;17.80;99.90;;;;;;5120514;28;20107;-73
2023/05/13 08:54:37;;;;;;;5.72;3.50;;;17.70;99.90;;;;;;5120597;28;20055;-73
2023/05/13 08:57:03;;;;;;;4.57;2.97;;;17.70;99.90;;;;;;5119840;28;20053;-73
2023/05/13 08:59:29;;;;;;;4.60;2.70;;;17.80;99.90;;;;;;5120192;28;20145;-73
2023/05/13 09:01:55;;;;;;;5.18;3.33;;;17.90;99.90;;;;;;5119706;28;20078;-73
2023/05/13 09:04:21;;;;;;;4.15;2.67;;;17.90;99.90;;;;;;5119903;28;20031;-73
2023/05/13 09:06:47;;;;;;;4.18;3.13;;;18.00;99.90;;;;;;5119650;28;20023;-73
2023/05/13 09:09:13;;;;;;;3.38;3.03;;;18.10;99.90;;;;;;5119225;28;20053;-73
2023/05/13 09:11:39;;;;;;;5.32;2.95;;;18.10;99.90;;;;;;5119105;28;20036;-73
2023/05/13 09:14:06;;;;;;;6.13;2.63;;;18.20;99.90;;;;;;5119596;28;20019;-73
2023/05/13 09:16:32;;;;;;;4.50;3.10;;;18.30;99.90;;;;;;5120283;28;20023;-73
2023/05/13 09:18:59;;;;;;;3.42;3.13;;;18.40;99.90;;;;;;5120199;28;20023;-73
2023/05/13 09:21:27;;;;;;;4.30;2.78;;;18.40;99.90;;;;;;5119112;28;20034;-73
2023/05/13 09:24:01;;;;;;;7.35;3.03;;;18.50;99.90;;;;;;5119877;28;20024;-72
2023/05/13 09:26:30;;;;;;;2.92;2.50;;;18.70;99.90;;;;;;5119905;28;20028;-73
2023/05/13 09:29:24;;;;;;;4.57;2.55;;;19.10;99.90;;;;;;5119103;28;20037;-73
2023/05/13 09:31:55;;;;;;;6.70;3.40;;;19.30;99.90;;;;;;5119004;28;20047;-73
2023/05/13 09:34:31;;;;;;;4.28;3.22;;;19.10;99.90;;;;;;5118193;28;20015;-73
2023/05/13 09:37:02;;;;;;;4.95;3.28;;;19.10;99.90;;;;;;5119488;28;20030;-73
2023/05/13 09:39:29;;;;;;;9.70;3.22;;;19.30;99.90;;;;;;5118970;28;20027;-73
2023/05/13 09:41:55;;;;;;;3.63;2.78;;;19.40;99.90;;;;;;5118760;28;20027;-73
2023/05/13 09:44:21;;;;;;;4.13;2.85;;;19.60;99.90;;;;;;5118867;28;20141;-72
2023/05/13 09:46:47;;;;;;;6.80;3.30;;;19.40;99.90;;;;;;5119454;28;20023;-73
2023/05/13 09:49:14;;;;;;;5.85;3.00;;;19.20;99.90;;;;;;5118437;28;20027;-73
2023/05/13 09:51:42;;;;;;;4.55;2.53;;;19.20;99.90;;;;;;5118754;28;20022;-73
2023/05/13 09:54:08;;;;;;;7.88;2.90;;;19.50;99.90;;;;;;5119146;28;20031;-73
2023/05/13 09:56:35;;;;;;;4.75;2.90;;;20.00;99.90;;;;;;5118983;28;20020;-73
2023/05/13 09:59:01;;;;;;;9.07;3.03;;;20.30;99.90;;;;;;5118392;28;20054;-73
2023/05/13 10:01:27;;;;;;;4.75;2.75;;;20.20;99.90;;;;;;5118282;28;20024;-73
2023/05/13 10:03:55;;;;;;;7.40;3.40;;;20.20;99.90;;;;;;5118788;28;20028;-73
2023/05/13 10:06:25;;;;;;;4.82;2.88;;;20.20;99.90;;;;;;5118073;28;20041;-73
2023/05/13 10:08:52;;;;;;;5.70;2.80;;;20.10;99.90;;;;;;5119171;28;20016;-73
2023/05/13 10:11:18;;;;;;;5.78;2.70;;;20.50;99.90;;;;;;5117984;28;20039;-73
2023/05/13 10:13:59;;;;;;;4.47;2.83;;;20.70;99.90;;;;;;5118893;28;20051;-73
2023/05/13 10:16:26;;;;;;;6.18;3.13;;;21.10;99.90;;;;;;5118298;28;20020;-73
2023/05/13 10:18:52;;;;;;;7.32;2.78;;;21.30;99.90;;;;;;5118864;28;20107;-73
2023/05/13 10:21:18;;;;;;;6.60;2.83;;;21.50;99.90;;;;;;5118216;28;20119;-72
2023/05/13 10:23:46;;;;;;;4.53;3.05;;;21.80;99.90;;;;;;5118156;28;20024;-73
2023/05/13 10:26:12;;;;;;;5.53;2.80;;;21.90;99.90;;;;;;5118188;28;20031;-73
2023/05/13 10:28:38;;;;;;;5.47;2.65;;;21.70;99.90;;;;;;5118491;28;20036;-73
2023/05/13 10:31:04;;;;;;;4.05;2.85;;;21.50;99.90;;;;;;5118450;28;20030;-73
2023/05/13 10:33:29;;;;;;;3.08;2.78;;;21.50;99.90;;;;;;5118220;28;20019;-73
2023/05/13 10:36:11;;;;;;;7.38;2.63;;;21.30;99.90;;;;;;5118344;28;20023;-73
2023/05/13 10:38:52;;;;;;;2.50;2.30;;;21.00;99.90;;;;;;5118118;28;20031;-73
2023/05/13 10:41:29;;;;;;;3.42;2.90;;;20.80;99.90;;;;;;5118262;28;20114;-72
2023/05/13 10:43:58;;;;;;;4.40;2.47;;;20.60;99.90;;;;;;5117945;28;20091;-73
2023/05/13 10:46:24;;;;;;;3.42;2.65;;;20.70;99.90;;;;;;5117111;28;20027;-73
2023/05/13 10:48:54;;;;;;;4.00;2.38;;;21.10;99.90;;;;;;5117325;28;20114;-73
2023/05/13 10:51:23;;;;;;;5.57;2.60;;;21.60;99.90;;;;;;5118036;28;20119;-73
2023/05/13 10:53:51;;;;;;;4.57;2.78;;;21.50;99.90;;;;;;5117153;28;20052;-73
2023/05/13 10:56:21;;;;;;;12.60;3.50;;;21.40;99.90;;;;;;5117596;28;20081;-72
2023/05/13 10:58:57;;;;;;;4.75;3.25;;;21.30;99.90;;;;;;5117340;28;20023;-72
2023/05/13 11:01:49;;;;;;;5.63;3.80;;;21.10;99.90;;;;;;5118050;28;20122;-73
2023/05/13 11:04:17;;;;;;;6.22;3.30;;;21.20;99.90;;;;;;5115583;28;20067;-72
2023/05/13 11:06:45;;;;;;;7.35;3.25;;;21.00;99.90;;;;;;5117264;28;20092;-72
2023/05/13 11:09:11;;;;;;;4.57;3.03;;;20.80;99.90;;;;;;5116927;28;20023;-72
2023/05/13 11:11:38;;;;;;;4.57;2.88;;;20.70;99.90;;;;;;5116905;28;20034;-73
2023/05/13 11:14:20;;;;;;;10.73;3.63;;;20.60;99.90;;;;;;5117050;28;20023;-72
2023/05/13 11:16:50;;;;;;;5.75;3.35;;;20.50;99.90;;;;;;5116925;28;20019;-73
2023/05/13 11:19:26;;;;;;;3.95;3.28;;;20.50;99.90;;;;;;5116924;28;20024;-73
2023/05/13 11:21:55;;;;;;;14.00;2.63;;;20.60;99.90;;;;;;5116747;28;20019;-72
2023/05/13 11:24:21;;;;;;;7.85;2.47;;;21.10;99.90;;;;;;5117183;28;20104;-73
2023/05/13 11:26:55;;;;;;;2.88;2.67;;;21.60;99.90;;;;;;5117763;28;20023;-73
2023/05/13 11:29:32;;;;;;;7.22;2.88;;;22.00;99.90;;;;;;5117541;28;20063;-72
2023/05/13 11:31:59;;;;;;;6.15;2.53;;;22.20;99.90;;;;;;5117577;28;20182;-73
2023/05/13 11:34:25;;;;;;;2.85;2.38;;;22.70;99.90;;;;;;5116655;28;20023;-73
2023/05/13 11:37:10;;;;;;;4.93;2.10;;;22.90;99.90;;;;;;5116651;28;20031;-73
2023/05/13 11:39:40;;;;;;;6.10;2.65;;;23.10;99.90;;;;;;5117945;28;20040;-73
2023/05/13 11:42:10;;;;;;;4.50;2.20;;;23.30;99.90;;;;;;5117121;28;20024;-73
2023/05/13 11:44:36;;;;;;;3.33;2.55;;;23.80;99.90;;;;;;5117567;28;20028;-73
2023/05/13 11:47:07;;;;;;;4.50;2.38;;;24.10;99.90;;;;;;5116700;28;20032;-73
2023/05/13 11:49:37;;;;;;;7.33;2.50;;;23.80;98.10;;;;;;5117325;28;20034;-73
2023/05/13 11:52:04;;;;;;;3.17;2.40;;;23.50;99.90;;;;;;5116586;28;20265;-73
2023/05/13 11:54:30;;;;;;;2.60;2.10;;;23.20;97.60;;;;;;5116989;28;20107;-73
2023/05/13 11:56:55;;;;;;;3.03;2.50;;;23.70;98.00;;;;;;5117182;28;20108;-73
2023/05/13 11:59:21;;;;;;;5.47;2.40;;;23.70;99.90;;;;;;5121248;28;20019;-73
2023/05/13 12:02:01;;;;;;;4.28;3.13;;;23.10;99.90;;;;;;5121415;28;20049;-73
2023/05/13 12:04:28;;;;;;;2.45;2.25;;;23.00;99.90;;;;;;5120667;28;20076;-73
2023/05/13 12:06:54;;;;;;;3.35;2.30;;;23.20;99.90;;;;;;5120994;28;20035;-73
2023/05/13 12:09:22;;;;;;;3.78;1.92;;;23.70;97.50;;;;;;5120385;28;20028;-74
2023/05/13 12:11:51;;;;;;;3.25;2.00;;;24.10;99.60;;;;;;5118075;22;20037;-72
2023/05/13 12:14:21;;;;;;;2.47;2.13;;;23.90;99.90;;;;;;5080139;28;20021;-72
2023/05/13 12:16:47;;;;;;;5.68;2.35;;;23.60;97.30;;;;;;5079620;28;20093;-72
2023/05/13 12:19:13;;;;;;;4.45;1.98;;;24.10;98.70;;;;;;5079765;28;20025;-72
2023/05/13 12:21:38;;;;;;;3.50;1.70;;;24.80;97.30;;;;;;5079485;28;20021;-72
2023/05/13 12:24:24;;;;;;;2.00;1.73;;;25.20;96.30;;;;;;5079568;28;20020;-72
2023/05/13 12:26:50;;;;;;;3.10;1.90;;;24.80;94.90;;;;;;5079173;28;20040;-72
2023/05/13 12:29:15;;;;;;;3.38;1.67;;;24.20;95.60;;;;;;5079660;28;20082;-72
2023/05/13 12:31:42;;;;;;;5.60;2.35;;;24.00;96.20;;;;;;5080003;28;20023;-72
2023/05/13 12:34:08;;;;;;;5.32;1.98;;;24.30;95.90;;;;;;5079287;28;20063;-72
2023/05/13 12:36:37;;;;;;;5.15;2.17;;;24.30;95.80;;;;;;5079256;28;20047;-72
2023/05/13 12:39:09;;;;;;;2.40;2.20;;;23.80;96.20;;;;;;5080094;28;20029;-71
2023/05/13 12:41:37;;;;;;;4.22;2.00;;;23.40;96.50;;;;;;5079355;28;20029;-71